Time;durP1;ratioP1;P1;durP2;ratioP2;P2;SDS_P1;SDS_P2;PMS_P1;PMS_P2;Temp;Humidity;BMP_temperature;BMP_pressure;BME280_temperature;BME280_humidity;BME280_pressure;Samples;Min_cycle;Max_cycle;Signal;HPM_P1;HPM_P2
2024/01/05 00:00:13;;;;;;;13.65;3.05;;;;;;;7.42;100.00;99765.91;5022614;28;20265;-74
2024/01/05 00:02:38;;;;;;;6.28;3.13;;;;;;;7.43;100.00;99764.16;5021621;28;20348;-73
2024/01/05 00:05:04;;;;;;;9.40;3.25;;;;;;;7.44;100.00;99763.22;5023522;28;20295;-73
2024/01/05 00:07:29;;;;;;;9.30;3.17;;;;;;;7.43;100.00;99756.34;5022812;28;20037;-73
2024/01/05 00:09:54;;;;;;;7.57;2.78;;;;;;;7.43;100.00;99754.56;5025429;28;20041;-73
2024/01/05 00:12:20;;;;;;;10.20;3.20;;;;;;;7.45;100.00;99742.31;5023665;28;20221;-73
2024/01/05 00:14:45;;;;;;;14.32;3.20;;;;;;;7.45;100.00;99754.50;5025656;28;20045;-73
2024/01/05 00:17:10;;;;;;;6.43;3.00;;;;;;;7.44;100.00;99753.66;5025214;28;20055;-73
2024/01/05 00:19:36;;;;;;;10.68;3.35;;;;;;;7.43;100.00;99756.34;5024671;28;20032;-73
2024/01/05 00:22:01;;;;;;;7.30;2.78;;;;;;;7.43;100.00;99746.75;5029058;28;20091;-73
2024/01/05 00:24:27;;;;;;;7.90;2.30;;;;;;;7.43;100.00;99748.53;5032739;28;20040;-73
2024/01/05 00:26:53;;;;;;;9.38;2.90;;;;;;;7.43;100.00;99735.50;5028827;28;20056;-73
2024/01/05 00:29:18;;;;;;;9.30;2.65;;;;;;;7.44;100.00;99738.03;5028677;28;20052;-73
2024/01/05 00:31:43;;;;;;;12.25;3.10;;;;;;;7.47;100.00;99732.66;5034256;28;20048;-73
2024/01/05 00:34:09;;;;;;;17.30;3.22;;;;;;;7.48;100.00;99726.56;5018109;28;20045;-73
2024/01/05 00:36:34;;;;;;;6.60;2.42;;;;;;;7.53;100.00;99722.88;5027564;28;20026;-73
2024/01/05 00:38:59;;;;;;;10.40;3.20;;;;;;;7.54;100.00;99717.59;5026679;28;20043;-73
2024/01/05 00:41:25;;;;;;;10.32;2.50;;;;;;;7.56;100.00;99718.38;5025721;28;20092;-73
2024/01/05 00:43:51;;;;;;;7.53;2.47;;;;;;;7.57;100.00;99720.09;5026806;28;20041;-73
2024/01/05 00:46:16;;;;;;;8.77;2.72;;;;;;;7.58;100.00;99713.09;5024360;28;20264;-73
2024/01/05 00:48:41;;;;;;;15.35;3.72;;;;;;;7.58;100.00;99713.94;5023342;28;20233;-73
2024/01/05 00:51:07;;;;;;;8.13;3.17;;;;;;;7.60;100.00;99708.66;5030846;28;20668;-73
2024/01/05 00:53:32;;;;;;;13.52;2.75;;;;;;;7.63;100.00;99703.31;5034479;28;20072;-73
2024/01/05 00:55:58;;;;;;;12.85;3.70;;;;;;;7.63;100.00;99703.31;5033462;28;20041;-73
2024/01/05 00:58:23;;;;;;;6.85;2.67;;;;;;;7.67;100.00;99699.63;5033195;28;20041;-73
2024/01/05 01:00:49;;;;;;;3.72;2.33;;;;;;;7.66;100.00;99701.41;5033762;28;20041;-73
2024/01/05 01:03:14;;;;;;;8.23;3.20;;;;;;;7.68;100.00;99694.34;5030066;28;20359;-73
2024/01/05 01:05:39;;;;;;;8.93;2.50;;;;;;;7.69;100.00;99690.84;5023535;28;20073;-73
2024/01/05 01:08:05;;;;;;;5.68;2.78;;;;;;;7.69;100.00;99695.19;5033430;28;20087;-73
2024/01/05 01:10:30;;;;;;;5.35;2.63;;;;;;;7.68;100.00;99683.94;5033865;28;20041;-73
2024/01/05 01:12:55;;;;;;;7.20;2.83;;;;;;;7.70;100.00;99676.06;5034004;28;20097;-73
2024/01/05 01:15:21;;;;;;;7.03;2.40;;;;;;;7.71;100.00;99671.66;5031886;28;20034;-73
2024/01/05 01:17:46;;;;;;;11.43;3.00;;;;;;;7.71;100.00;99676.88;5026981;28;20044;-73
2024/01/05 01:20:11;;;;;;;9.60;2.88;;;;;;;7.69;100.00;99672.59;5019537;28;20033;-73
2024/01/05 01:22:37;;;;;;;11.77;3.05;;;;;;;7.68;100.00;99660.47;5015621;28;20312;-73
2024/01/05 01:25:03;;;;;;;6.28;2.45;;;;;;;7.71;100.00;99662.09;5019129;28;20400;-73
2024/01/05 01:27:29;;;;;;;6.72;2.45;;;;;;;7.71;100.00;99651.66;5033141;28;20051;-73
2024/01/05 01:29:54;;;;;;;3.50;1.90;;;;;;;7.72;100.00;99647.31;5032073;28;20071;-73
2024/01/05 01:32:19;;;;;;;13.38;2.88;;;;;;;7.72;100.00;99652.53;5022218;28;20063;-73
2024/01/05 01:34:45;;;;;;;9.88;2.58;;;;;;;7.75;100.00;99637.59;5033994;28;20067;-73
2024/01/05 01:37:10;;;;;;;7.65;2.83;;;;;;;7.73;100.00;99639.44;5026444;28;20202;-73
2024/01/05 01:39:36;;;;;;;8.52;2.70;;;;;;;7.75;100.00;99631.50;5033392;28;20033;-73
2024/01/05 01:42:01;;;;;;;11.88;2.55;;;;;;;7.76;100.00;99626.22;5028364;28;20029;-73
2024/01/05 01:44:27;;;;;;;10.60;2.40;;;;;;;7.75;100.00;99621.94;5033581;28;20068;-73
2024/01/05 01:46:55;;;;;;;14.93;3.03;;;;;;;7.77;100.00;99620.13;5032876;28;20037;-73
2024/01/05 01:49:21;;;;;;;10.18;2.72;;;;;;;7.76;100.00;99613.19;5033510;28;20028;-73
2024/01/05 01:51:48;;;;;;;11.52;3.15;;;;;;;7.78;100.00;99615.72;5033584;28;20336;-73
2024/01/05 01:54:13;;;;;;;8.88;2.20;;;;;;;7.80;100.00;99611.28;5033035;28;20132;-73
2024/01/05 01:56:39;;;;;;;10.57;2.80;;;;;;;7.80;100.00;99600.84;5033133;28;20037;-73
2024/01/05 01:59:06;;;;;;;8.35;2.72;;;;;;;7.81;100.00;99594.75;5027400;28;20324;-73
2024/01/05 02:01:31;;;;;;;8.70;2.53;;;;;;;7.81;100.00;99595.56;5014759;28;20097;-73
2024/01/05 02:03:57;;;;;;;6.35;1.92;;;;;;;7.83;100.00;99588.53;5029447;28;20067;-73
2024/01/05 02:06:23;;;;;;;4.38;2.03;;;;;;;7.83;100.00;99577.25;5014114;28;20029;-73
2024/01/05 02:08:49;;;;;;;6.50;2.42;;;;;;;7.84;100.00;99573.72;5014200;28;20045;-73
2024/01/05 02:11:14;;;;;;;9.00;2.67;;;;;;;7.84;100.00;99571.97;5014303;28;20034;-73
2024/01/05 02:13:40;;;;;;;7.18;2.25;;;;;;;7.85;100.00;99568.44;5017584;28;20093;-73
2024/01/05 02:16:05;;;;;;;7.78;2.03;;;;;;;7.85;100.00;99568.44;5018183;28;20030;-73
2024/01/05 02:18:31;;;;;;;6.38;2.05;;;;;;;7.84;100.00;99563.28;5030303;28;20298;-73
2024/01/05 02:21:00;;;;;;;6.07;1.90;;;;;;;7.86;100.00;99564.91;5036379;28;20336;-73
2024/01/05 02:23:26;;;;;;;7.00;1.70;;;;;;;7.89;100.00;99556.09;5027782;28;20042;-73
2024/01/05 02:25:54;;;;;;;11.95;2.35;;;;;;;7.85;100.00;99555.41;5019075;28;20029;-73
2024/01/05 02:28:19;;;;;;;8.98;2.30;;;;;;;7.86;100.00;99557.09;5026690;28;20045;-73
2024/01/05 02:30:45;;;;;;;5.82;1.83;;;;;;;7.87;100.00;99547.50;5032008;28;20371;-73
2024/01/05 02:33:10;;;;;;;5.60;1.80;;;;;;;7.90;100.00;99543.94;5021265;28;20025;-73
2024/01/05 02:35:36;;;;;;;3.95;1.50;;;;;;;7.91;100.00;99540.38;5035527;28;20435;-73
2024/01/05 02:38:01;;;;;;;4.30;1.65;;;;;;;7.93;100.00;99530.72;5032717;28;20344;-73
2024/01/05 02:40:27;;;;;;;9.63;2.08;;;;;;;7.94;100.00;99532.41;5036610;28;20333;-73
2024/01/05 02:42:52;;;;;;;3.22;1.50;;;;;;;7.95;100.00;99526.25;5035093;28;20041;-73
2024/01/05 02:45:20;;;;;;;5.22;1.35;;;;;;;7.94;100.00;99524.59;5036306;28;20115;-73
2024/01/05 02:47:49;;;;;;;8.60;1.90;;;;;;;7.94;100.00;99516.78;5036381;28;20041;-73
2024/01/05 02:50:15;;;;;;;6.38;2.30;;;;;;;7.95;100.00;99518.44;5035366;28;20033;-73
2024/01/05 02:52:41;;;;;;;5.07;2.33;;;;;;;7.96;100.00;99514.94;5035084;28;20307;-73
2024/01/05 02:55:07;;;;;;;14.43;2.53;;;;;;;7.99;100.00;99512.16;5035225;28;20108;-73
2024/01/05 02:57:32;;;;;;;8.88;2.00;;;;;;;8.00;100.00;99508.63;5025918;28;20103;-73
2024/01/05 02:59:57;;;;;;;7.30;1.98;;;;;;;7.98;100.00;99513.06;5016612;28;20049;-73
2024/01/05 03:02:23;;;;;;;8.55;2.20;;;;;;;7.97;100.00;99512.25;5026508;28;20029;-73
2024/01/05 03:04:49;;;;;;;5.38;1.67;;;;;;;8.00;100.00;99500.81;5017104;28;20288;-73
2024/01/05 03:07:14;;;;;;;11.63;2.30;;;;;;;7.98;100.00;99503.47;5020865;28;20573;-73
2024/01/05 03:09:40;;;;;;;6.90;1.88;;;;;;;8.00;100.00;99498.19;5036306;28;20345;-73
2024/01/05 03:12:05;;;;;;;7.88;1.88;;;;;;;7.98;100.00;99485.22;5035827;28;20041;-73
2024/01/05 03:14:31;;;;;;;11.65;2.17;;;;;;;7.99;100.00;99483.50;5036214;28;20405;-73
2024/01/05 03:16:56;;;;;;;3.17;1.60;;;;;;;7.99;100.00;99480.88;5036281;28;20029;-73
2024/01/05 03:19:21;;;;;;;4.13;1.30;;;;;;;7.99;100.00;99478.28;5035389;28;20064;-74
2024/01/05 03:21:47;;;;;;;5.38;1.58;;;;;;;7.98;100.00;99473.97;5035575;28;20263;-73
2024/01/05 03:24:12;;;;;;;4.72;1.80;;;;;;;8.01;100.00;99479.03;5035443;28;20041;-73
2024/01/05 03:26:37;;;;;;;8.20;2.20;;;;;;;8.01;100.00;99469.44;5036031;28;20033;-73
2024/01/05 03:29:03;;;;;;;5.28;1.38;;;;;;;8.00;100.00;99465.13;5035450;28;20210;-73
2024/01/05 03:31:28;;;;;;;3.85;1.77;;;;;;;8.00;100.00;99459.91;5025858;28;20101;-73
2024/01/05 03:33:53;;;;;;;6.22;1.65;;;;;;;8.01;100.00;99452.97;5015541;28;20045;-73
2024/01/05 03:36:19;;;;;;;4.18;1.92;;;;;;;8.01;100.00;99448.59;5015728;28;20076;-77
2024/01/05 03:38:44;;;;;;;4.00;2.00;;;;;;;8.01;100.00;99450.34;5015384;28;20510;-77
2024/01/05 03:41:10;;;;;;;5.60;1.83;;;;;;;8.00;100.00;99446.06;5015361;28;20045;-77
2024/01/05 03:43:35;;;;;;;3.92;1.30;;;;;;;7.99;100.00;99436.56;5015061;28;20034;-77
2024/01/05 03:46:01;;;;;;;8.18;1.98;;;;;;;7.98;100.00;99435.69;5014188;28;20064;-77
2024/01/05 03:48:26;;;;;;;2.78;1.38;;;;;;;7.96;100.00;99424.50;5014974;28;20115;-77
2024/01/05 03:50:52;;;;;;;6.88;1.40;;;;;;;7.97;100.00;99427.97;5014681;28;20222;-77
2024/01/05 03:53:17;;;;;;;3.88;1.10;;;;;;;7.96;100.00;99423.69;5015436;28;20368;-76
2024/01/05 03:55:42;;;;;;;4.28;1.58;;;;;;;7.95;100.00;99414.16;5018092;28;20040;-76
2024/01/05 03:58:08;;;;;;;6.70;1.45;;;;;;;7.94;100.00;99409.88;5034652;28;20061;-76
2024/01/05 04:00:33;;;;;;;4.90;1.33;;;;;;;7.93;100.00;99405.59;5034949;28;20032;-76
2024/01/05 04:02:58;;;;;;;7.65;1.48;;;;;;;7.93;100.00;99402.97;5034928;28;20033;-76
2024/01/05 04:05:24;;;;;;;5.55;1.38;;;;;;;7.89;100.00;99397.09;5034600;28;20225;-77
2024/01/05 04:07:49;;;;;;;4.72;1.73;;;;;;;7.91;100.00;99397.00;5020249;28;20057;-76
2024/01/05 04:10:15;;;;;;;2.22;1.15;;;;;;;7.91;100.00;99386.59;5014825;28;20037;-76
2024/01/05 04:12:40;;;;;;;1.55;1.23;;;;;;;7.90;100.00;99372.72;5017793;28;20038;-76
2024/01/05 04:15:06;;;;;;;3.38;1.40;;;;;;;7.92;100.00;99378.69;5019102;28;20076;-76
2024/01/05 04:17:31;;;;;;;1.85;1.10;;;;;;;7.92;100.00;99383.06;5033811;28;20083;-76
2024/01/05 04:19:56;;;;;;;2.75;1.20;;;;;;;7.92;100.00;99373.47;5018235;28;20046;-76
2024/01/05 04:22:22;;;;;;;3.50;1.15;;;;;;;7.92;100.00;99378.69;5035011;28;20301;-76
2024/01/05 04:24:47;;;;;;;2.80;1.52;;;;;;;7.92;100.00;99367.41;5031618;28;20037;-76
2024/01/05 04:27:12;;;;;;;3.13;1.23;;;;;;;7.93;100.00;99366.47;5014270;28;20037;-75
2024/01/05 04:29:38;;;;;;;3.13;1.35;;;;;;;7.96;100.00;99364.56;5016298;28;20288;-75
2024/01/05 04:32:04;;;;;;;7.43;1.40;;;;;;;8.00;100.00;99373.06;5022564;28;20386;-75
2024/01/05 04:34:29;;;;;;;2.47;1.25;;;;;;;8.03;100.00;99371.13;5023846;28;20285;-75
2024/01/05 04:36:55;;;;;;;4.18;1.35;;;;;;;8.07;100.00;99356.16;5023072;28;20244;-75
2024/01/05 04:39:20;;;;;;;4.35;1.73;;;;;;;8.11;100.00;99352.44;5023446;28;20332;-75
2024/01/05 04:41:45;;;;;;;1.73;1.02;;;;;;;8.13;100.00;99353.25;5024230;28;20061;-75
2024/01/05 04:44:11;;;;;;;5.78;1.40;;;;;;;8.14;100.00;99356.69;5022434;28;20248;-77
2024/01/05 04:46:36;;;;;;;3.67;1.48;;;;;;;8.15;100.00;99348.78;5024565;28;20061;-77
2024/01/05 04:49:02;;;;;;;4.22;1.20;;;;;;;8.17;100.00;99356.53;5022835;28;20105;-76
2024/01/05 04:51:27;;;;;;;2.83;1.17;;;;;;;8.15;100.00;99348.78;5024416;28;20040;-76
2024/01/05 04:53:53;;;;;;;6.82;1.30;;;;;;;8.14;100.00;99339.25;5022463;28;20101;-76
2024/01/05 04:56:18;;;;;;;2.58;1.40;;;;;;;8.08;100.00;99340.44;5023808;28;20049;-76
2024/01/05 04:58:44;;;;;;;4.63;1.17;;;;;;;8.04;100.00;99346.75;5022743;28;20083;-76
2024/01/05 05:01:09;;;;;;;3.28;1.23;;;;;;;7.97;100.00;99349.78;5023707;28;20104;-76
2024/01/05 05:03:35;;;;;;;3.30;1.13;;;;;;;7.95;100.00;99331.59;5024607;28;20032;-76
2024/01/05 05:06:01;;;;;;;4.45;1.40;;;;;;;7.95;100.00;99347.25;5022938;28;20340;-76
2024/01/05 05:08:27;;;;;;;2.45;1.20;;;;;;;7.92;100.00;99357.00;5027650;28;20040;-76
2024/01/05 05:10:52;;;;;;;6.47;1.35;;;;;;;7.91;100.00;99365.72;5032592;28;20050;-76
2024/01/05 05:13:18;;;;;;;3.03;0.95;;;;;;;7.90;100.00;99359.69;5019510;28;20054;-76
2024/01/05 05:15:43;;;;;;;3.28;0.88;;;;;;;7.80;100.00;99361.91;5024302;28;20036;-77
2024/01/05 05:18:09;;;;;;;1.25;0.80;;;;;;;7.75;100.00;99347.44;5028685;28;20240;-76
2024/01/05 05:20:34;;;;;;;0.85;0.47;;;;;;;7.66;100.00;99343.59;5034155;28;20048;-76
2024/01/05 05:22:59;;;;;;;2.33;0.40;;;;;;;7.62;100.00;99340.28;5032903;28;20033;-76
2024/01/05 05:25:25;;;;;;;1.55;0.52;;;;;;;7.57;100.00;99342.28;5013749;28;20589;-76
2024/01/05 05:27:50;;;;;;;4.00;0.38;;;;;;;7.49;100.00;99341.84;5014595;28;20312;-76
2024/01/05 05:30:17;;;;;;;2.72;0.43;;;;;;;7.46;100.00;99327.22;5027598;28;20036;-76
2024/01/05 05:32:42;;;;;;;2.28;0.70;;;;;;;7.45;100.00;99338.53;5028092;28;20033;-76
2024/01/05 05:35:07;;;;;;;1.17;0.40;;;;;;;7.43;100.00;99329.97;5023977;28;20359;-76
2024/01/05 05:37:33;;;;;;;0.70;0.32;;;;;;;7.44;100.00;99339.47;5022403;28;20080;-76
2024/01/05 05:39:58;;;;;;;0.70;0.40;;;;;;;7.37;100.00;99335.50;5023923;28;20144;-76
2024/01/05 05:42:23;;;;;;;1.52;0.40;;;;;;;7.36;100.00;99332.97;5015910;28;20344;-76
2024/01/05 05:44:49;;;;;;;3.75;0.40;;;;;;;7.32;100.00;99336.66;5023215;28;20429;-76
2024/01/05 05:47:14;;;;;;;1.02;0.47;;;;;;;7.27;100.00;99329.06;5027835;28;20303;-76
2024/01/05 05:49:39;;;;;;;0.60;0.20;;;;;;;7.26;100.00;99340.44;5024851;28;20037;-76
2024/01/05 05:52:05;;;;;;;0.95;0.40;;;;;;;7.29;100.00;99335.03;5037073;28;20290;-76
2024/01/05 05:54:31;;;;;;;3.40;0.50;;;;;;;7.21;100.00;99342.41;5030152;28;20045;-76
2024/01/05 05:56:57;;;;;;;0.50;0.30;;;;;;;7.22;100.00;99344.09;5017097;28;20025;-76
2024/01/05 05:59:23;;;;;;;0.35;0.28;;;;;;;7.26;100.00;99338.66;5017273;28;20280;-76
2024/01/05 06:01:48;;;;;;;0.52;0.35;;;;;;;7.29;100.00;99333.31;5017634;28;20057;-76
2024/01/05 06:04:14;;;;;;;0.47;0.30;;;;;;;7.21;100.00;99332.84;5016607;28;20042;-76
2024/01/05 06:06:39;;;;;;;2.83;0.35;;;;;;;7.16;100.00;99329.63;5017681;28;20038;-76
2024/01/05 06:09:05;;;;;;;0.55;0.28;;;;;;;7.20;100.00;99338.94;5017012;28;20044;-76
2024/01/05 06:11:31;;;;;;;1.38;0.50;;;;;;;7.21;100.00;99339.81;5017383;28;20369;-76
2024/01/05 06:13:57;;;;;;;0.30;0.25;;;;;;;7.18;100.00;99338.19;5016980;28;20040;-76
2024/01/05 06:16:22;;;;;;;0.57;0.40;;;;;;;7.18;100.00;99332.97;5017410;28;20133;-76
2024/01/05 06:18:48;;;;;;;0.63;0.40;;;;;;;7.21;100.00;99330.22;5017229;28;20034;-76
2024/01/05 06:21:13;;;;;;;2.35;0.80;;;;;;;7.21;100.00;99330.22;5016454;28;20041;-76
2024/01/05 06:23:39;;;;;;;2.90;0.50;;;;;;;7.21;100.00;99322.41;5017200;28;20097;-77
2024/01/05 06:26:04;;;;;;;1.20;0.40;;;;;;;7.18;100.00;99325.16;5017115;28;20037;-76
2024/01/05 06:28:30;;;;;;;0.60;0.40;;;;;;;7.09;100.00;99331.72;5029088;28;20045;-76
2024/01/05 06:30:55;;;;;;;0.65;0.25;;;;;;;7.16;100.00;99334.81;5031667;28;20025;-76
2024/01/05 06:33:21;;;;;;;1.10;0.22;;;;;;;7.14;100.00;99333.22;5021749;28;20103;-76
2024/01/05 06:35:47;;;;;;;0.95;0.35;;;;;;;7.09;100.00;99336.06;5036356;28;20040;-76
2024/01/05 06:38:12;;;;;;;1.08;0.38;;;;;;;7.10;100.00;99333.38;5035384;28;20048;-76
2024/01/05 06:40:38;;;;;;;1.02;0.40;;;;;;;7.11;100.00;99327.28;5035604;28;20244;-76
2024/01/05 06:43:03;;;;;;;1.33;0.40;;;;;;;7.09;100.00;99328.25;5035499;28;20252;-76
2024/01/05 06:45:28;;;;;;;1.58;0.40;;;;;;;7.04;100.00;99323.28;5035621;28;20037;-76
2024/01/05 06:47:54;;;;;;;0.90;0.40;;;;;;;7.05;100.00;99313.72;5035055;28;20064;-76
2024/01/05 06:50:19;;;;;;;0.40;0.40;;;;;;;7.05;100.00;99319.75;5024968;28;20349;-76
2024/01/05 06:52:45;;;;;;;2.35;0.50;;;;;;;7.05;100.00;99314.53;5022529;28;20261;-76
2024/01/05 06:55:11;;;;;;;0.68;0.40;;;;;;;7.05;100.00;99308.50;5030979;28;20059;-76
2024/01/05 06:57:36;;;;;;;2.63;0.70;;;;;;;7.08;100.00;99308.34;5034147;28;20329;-76
2024/01/05 07:00:03;;;;;;;2.10;0.80;;;;;;;7.03;100.00;99299.94;5022197;28;20377;-76
2024/01/05 07:02:29;;;;;;;3.33;0.88;;;;;;;7.01;100.00;99296.56;5035629;28;20375;-76
2024/01/05 07:04:54;;;;;;;1.73;1.10;;;;;;;7.02;100.00;99303.44;5042746;28;20026;-76
2024/01/05 07:07:19;;;;;;;2.85;0.73;;;;;;;6.99;100.00;99304.44;5028293;28;20345;-76
2024/01/05 07:09:45;;;;;;;0.63;0.63;;;;;;;6.95;100.00;99297.72;5024945;28;20038;-76
2024/01/05 07:12:10;;;;;;;0.93;0.90;;;;;;;6.93;100.00;99299.56;5029379;28;20045;-76
2024/01/05 07:14:35;;;;;;;1.17;0.95;;;;;;;6.88;100.00;99298.94;5019138;28;20081;-76
2024/01/05 07:17:01;;;;;;;1.50;0.98;;;;;;;6.83;100.00;99298.31;5037453;28;20059;-76
2024/01/05 07:19:26;;;;;;;0.70;0.70;;;;;;;6.84;100.00;99298.25;5035512;28;20249;-76
2024/01/05 07:21:53;;;;;;;1.75;0.77;;;;;;;6.88;100.00;99302.38;5035696;28;20426;-76
2024/01/05 07:24:18;;;;;;;2.83;1.10;;;;;;;6.89;100.00;99298.00;5026905;28;20041;-76
2024/01/05 07:26:44;;;;;;;1.98;1.02;;;;;;;6.86;100.00;99296.41;5022453;28;20021;-76
2024/01/05 07:29:09;;;;;;;1.77;1.20;;;;;;;6.90;100.00;99304.91;5019416;28;20101;-76
2024/01/05 07:31:35;;;;;;;2.20;0.90;;;;;;;6.90;100.00;99294.50;5025820;28;20076;-76
2024/01/05 07:34:01;;;;;;;1.60;1.00;;;;;;;6.82;100.00;99294.03;5026253;28;20581;-76
2024/01/05 07:36:26;;;;;;;1.05;0.88;;;;;;;6.84;100.00;99286.97;5025491;28;20037;-76
2024/01/05 07:38:52;;;;;;;1.67;0.85;;;;;;;6.84;100.00;99292.19;5026823;28;20037;-76
2024/01/05 07:41:17;;;;;;;3.40;1.75;;;;;;;6.83;100.00;99286.16;5029774;28;20034;-76
2024/01/05 07:43:43;;;;;;;0.93;0.93;;;;;;;6.82;100.00;99294.91;5026682;28;20037;-77
2024/01/05 07:46:08;;;;;;;1.45;1.10;;;;;;;6.78;100.00;99290.75;5022554;28;20561;-74
2024/01/05 07:48:34;;;;;;;1.40;1.30;;;;;;;6.79;100.00;99287.22;5027712;28;20101;-77
2024/01/05 07:51:03;;;;;;;0.88;0.80;;;;;;;6.80;100.00;99281.09;5027948;28;20025;-77
2024/01/05 07:53:28;;;;;;;2.45;1.40;;;;;;;6.79;100.00;99281.19;5025812;28;20041;-75
2024/01/05 07:55:54;;;;;;;1.83;1.42;;;;;;;6.77;100.00;99280.41;5030128;28;20029;-77
2024/01/05 07:58:19;;;;;;;1.48;1.38;;;;;;;6.71;100.00;99281.56;5025429;28;20096;-77
2024/01/05 08:00:45;;;;;;;1.85;1.50;;;;;;;6.70;100.00;99269.47;5023371;28;20056;-77
2024/01/05 08:03:11;;;;;;;1.17;1.15;;;;;;;6.72;100.00;99267.63;5023848;28;20147;-75
2024/01/05 08:05:36;;;;;;;1.42;1.33;;;;;;;6.70;100.00;99269.47;5025105;28;20080;-77
2024/01/05 08:08:02;;;;;;;1.58;1.48;;;;;;;6.67;100.00;99261.81;5024151;28;20057;-75
2024/01/05 08:10:27;;;;;;;1.10;1.08;;;;;;;6.70;100.00;99257.31;5028718;28;20079;-77
2024/01/05 08:12:54;;;;;;;1.58;1.30;;;;;;;6.69;100.00;99267.78;5025354;28;20034;-75
2024/01/05 08:15:19;;;;;;;2.35;1.50;;;;;;;6.70;100.00;99264.28;5024344;28;20120;-77
2024/01/05 08:17:45;;;;;;;1.80;1.58;;;;;;;6.67;100.00;99261.81;5024422;28;20033;-77
2024/01/05 08:20:11;;;;;;;2.25;1.77;;;;;;;6.69;100.00;99259.97;5028167;28;20359;-75
2024/01/05 08:22:36;;;;;;;1.85;1.50;;;;;;;6.68;100.00;99259.16;5033724;28;20033;-77
2024/01/05 08:25:03;;;;;;;1.40;1.30;;;;;;;6.70;100.00;99256.47;5025721;28;20037;-77
2024/01/05 08:27:29;;;;;;;2.35;1.52;;;;;;;6.70;100.00;99256.47;5033345;28;20056;-77
2024/01/05 08:29:55;;;;;;;2.30;1.73;;;;;;;6.68;100.00;99251.34;5033358;28;20041;-77
2024/01/05 08:32:20;;;;;;;2.95;1.80;;;;;;;6.69;100.00;99255.63;5033617;28;20025;-75
2024/01/05 08:34:46;;;;;;;3.25;2.85;;;;;;;6.64;100.00;99251.56;5032932;28;20332;-77
2024/01/05 08:37:11;;;;;;;1.83;1.73;;;;;;;6.64;100.00;99255.03;5028810;28;20346;-77
2024/01/05 08:39:39;;;;;;;2.10;1.90;;;;;;;6.68;100.00;99253.09;5034053;28;20041;-74
2024/01/05 08:42:08;;;;;;;2.53;2.33;;;;;;;6.68;100.00;99242.69;5033024;28;20424;-74
2024/01/05 08:44:34;;;;;;;2.65;2.47;;;;;;;6.65;100.00;99248.03;5027836;28;20036;-77
2024/01/05 08:47:00;;;;;;;3.65;3.20;;;;;;;6.58;100.00;99242.31;5024914;28;20345;-77
2024/01/05 08:49:26;;;;;;;3.10;2.90;;;;;;;6.60;100.00;99250.88;5031355;28;20199;-76
2024/01/05 08:51:52;;;;;;;4.03;3.58;;;;;;;6.61;100.00;99242.16;5015326;28;20033;-76
2024/01/05 08:54:17;;;;;;;3.28;3.08;;;;;;;6.62;100.00;99246.44;5021000;28;20037;-76
2024/01/05 08:56:42;;;;;;;3.50;3.20;;;;;;;6.63;100.00;99253.31;5023057;28;20061;-77
2024/01/05 08:59:08;;;;;;;3.83;3.53;;;;;;;6.60;100.00;99248.25;5030251;28;20041;-76
2024/01/05 09:01:33;;;;;;;3.90;3.60;;;;;;;6.60;100.00;99244.81;5024088;28;20029;-77
2024/01/05 09:03:59;;;;;;;4.32;3.80;;;;;;;6.61;100.00;99251.72;5020511;28;20352;-76
2024/01/05 09:06:24;;;;;;;4.28;3.88;;;;;;;6.64;100.00;99246.34;5023680;28;20299;-76
2024/01/05 09:08:50;;;;;;;3.97;3.67;;;;;;;6.63;100.00;99240.31;5030481;28;20037;-76
2024/01/05 09:11:16;;;;;;;4.55;3.90;;;;;;;6.62;100.00;99236.03;5022007;28;20226;-76
2024/01/05 09:13:41;;;;;;;4.13;3.72;;;;;;;6.64;100.00;99252.41;5022468;28;20288;-76
2024/01/05 09:16:06;;;;;;;4.57;4.15;;;;;;;6.63;100.00;99239.47;5019756;28;20041;-76
2024/01/05 09:18:35;;;;;;;4.63;4.20;;;;;;;6.61;100.00;99236.94;5027240;28;20037;-77
2024/01/05 09:21:02;;;;;;;4.13;3.83;;;;;;;6.67;100.00;99243.59;5034190;28;20101;-77
2024/01/05 09:23:27;;;;;;;4.40;3.80;;;;;;;6.69;100.00;99242.63;5030189;28;20041;-76
2024/01/05 09:25:53;;;;;;;4.57;4.18;;;;;;;6.67;100.00;99249.63;5035381;28;20067;-77
2024/01/05 09:28:18;;;;;;;4.82;4.43;;;;;;;6.68;100.00;99251.34;5034733;28;20037;-83
2024/01/05 09:30:44;;;;;;;5.93;4.20;;;;;;;6.78;100.00;99253.47;5030558;28;20184;-76
2024/01/05 09:33:09;;;;;;;5.97;4.65;;;;;;;6.73;100.00;99251.94;5029778;28;20085;-76
2024/01/05 09:35:35;;;;;;;5.40;4.75;;;;;;;6.74;100.00;99252.78;5033868;28;20030;-77
2024/01/05 09:38:00;;;;;;;5.95;4.47;;;;;;;6.77;100.00;99267.38;5034501;28;20032;-77
2024/01/05 09:40:26;;;;;;;4.80;4.22;;;;;;;6.79;100.00;99260.38;5037308;28;20056;-76
2024/01/05 09:42:51;;;;;;;6.45;4.60;;;;;;;6.78;100.00;99256.06;5031699;28;20034;-76
2024/01/05 09:45:21;;;;;;;5.28;4.32;;;;;;;6.71;100.00;99268.53;5029385;28;20125;-76
2024/01/05 09:47:48;;;;;;;5.68;4.68;;;;;;;6.72;100.00;99255.47;5033170;28;20037;-77
2024/01/05 09:50:16;;;;;;;5.50;4.95;;;;;;;6.79;100.00;99252.56;5034839;28;20206;-76
2024/01/05 09:52:43;;;;;;;4.90;4.45;;;;;;;6.82;100.00;99252.41;5030748;28;20021;-76
2024/01/05 09:55:08;;;;;;;5.93;5.43;;;;;;;6.85;100.00;99252.25;5030288;28;20037;-76
2024/01/05 09:57:36;;;;;;;5.00;4.57;;;;;;;6.89;100.00;99254.63;5033782;28;20039;-77
2024/01/05 10:00:03;;;;;;;4.03;3.72;;;;;;;6.95;100.00;99253.47;5031820;28;20041;-76
2024/01/05 10:02:36;;;;;;;5.50;4.13;;;;;;;7.03;100.00;99243.50;5035885;28;20103;-76
2024/01/05 10:05:01;;;;;;;5.22;3.83;;;;;;;7.07;100.00;99241.56;5031479;28;20362;-76
2024/01/05 10:07:27;;;;;;;3.58;3.35;;;;;;;7.10;100.00;99234.44;5031345;28;20315;-76
2024/01/05 10:09:54;;;;;;;3.47;3.17;;;;;;;7.13;100.00;99233.47;5035036;28;20038;-76
2024/01/05 10:12:20;;;;;;;3.60;3.30;;;;;;;7.20;100.00;99232.19;5031925;28;20367;-77
2024/01/05 10:14:47;;;;;;;2.92;2.72;;;;;;;7.19;100.00;99227.09;5033328;28;20045;-76
2024/01/05 10:17:13;;;;;;;3.20;2.90;;;;;;;7.19;100.00;99219.28;5030713;28;20045;-76
2024/01/05 10:19:41;;;;;;;3.15;2.55;;;;;;;7.19;100.00;99212.31;5029107;28;20100;-77
2024/01/05 10:22:14;;;;;;;3.13;2.93;;;;;;;7.20;100.00;99206.16;5030109;28;20386;-76
2024/01/05 10:24:40;;;;;;;2.72;2.17;;;;;;;7.19;100.00;99191.47;5033901;28;20225;-76
2024/01/05 10:27:11;;;;;;;1.98;1.88;;;;;;;7.19;100.00;99196.69;5034531;28;20205;-76
2024/01/05 10:29:43;;;;;;;1.70;1.60;;;;;;;7.16;100.00;99185.59;5032908;28;20052;-77
2024/01/05 10:32:19;;;;;;;1.65;1.55;;;;;;;7.11;100.00;99199.69;5025701;28;20473;-77
2024/01/05 10:34:46;;;;;;;1.73;1.40;;;;;;;7.08;100.00;99192.03;5033428;28;20040;-76
2024/01/05 10:37:13;;;;;;;1.48;1.38;;;;;;;7.03;100.00;99194.03;5030415;28;20048;-77
2024/01/05 10:39:39;;;;;;;2.35;1.30;;;;;;;7.04;100.00;99190.53;5030834;28;20229;-77
2024/01/05 10:42:19;;;;;;;1.38;1.27;;;;;;;7.07;100.00;99187.75;5029473;28;20017;-76
2024/01/05 10:44:45;;;;;;;2.78;0.90;;;;;;;7.04;100.00;99190.53;5023031;28;20068;-76
2024/01/05 10:47:14;;;;;;;1.30;1.20;;;;;;;7.01;100.00;99189.84;5030138;28;20042;-76
2024/01/05 10:49:40;;;;;;;;;;;;;;;7.05;100.00;99199.16;5038057;28;20037;-77
2024/01/05 10:52:05;;;;;;;3.45;1.55;;;;;;;7.05;100.00;99192.19;5037989;28;20236;-75
2024/01/05 10:54:32;;;;;;;2.25;1.65;;;;;;;7.07;100.00;99200.75;5037554;28;20033;-76
2024/01/05 10:56:59;;;;;;;6.13;1.95;;;;;;;7.09;100.00;99201.56;5028007;28;20037;-76
2024/01/05 10:59:24;;;;;;;2.58;2.10;;;;;;;7.10;100.00;99208.41;5031739;28;20237;-76
2024/01/05 11:01:50;;;;;;;7.32;3.00;;;;;;;7.10;100.00;99200.59;5038568;28;20061;-76
2024/01/05 11:04:18;;;;;;;6.75;2.97;;;;;;;7.15;100.00;99208.19;5046155;28;20100;-76
2024/01/05 11:06:44;;;;;;;8.10;3.70;;;;;;;7.16;100.00;99214.22;5045635;28;20310;-75
2024/01/05 11:09:39;;;;;;;9.57;4.65;;;;;;;7.17;100.00;99211.56;5044428;28;20040;-75
2024/01/05 11:12:29;;;;;;;10.88;5.93;;;;;;;7.19;100.00;99217.50;5045165;28;20083;-75
2024/01/05 11:15:31;;;;;;;7.22;5.38;;;;;;;7.20;100.00;99223.56;5043442;28;20147;-75
2024/01/05 11:18:08;;;;;;;12.40;6.70;;;;;;;7.19;100.00;99234.91;4989811;28;20338;-76
2024/01/05 11:21:16;;;;;;;10.40;7.30;;;;;;;7.17;100.00;99249.75;5035337;28;20264;-76
2024/01/05 11:23:43;;;;;;;14.68;7.72;;;;;;;7.16;100.00;99256.72;5037872;28;20405;-76
2024/01/05 11:26:39;;;;;;;10.93;8.18;;;;;;;7.17;100.00;99261.03;5046911;28;20029;-76